Tamarack, Minnesota
Current Conditions -  °F | °C
As of 8:27 PM on Sunday 23 Nov 2014 (Local Time) from KHZX Reporting Station
Overcast Overcast  
Wind Chill: 36°   Ceiling: 1900
Heat Index: 36°   Visibility: 4mi
Dew Point: 34°   Wind: 3mph
Humidity: 93%   Direction: 320°NW
Pressure: 29.36"   Gusts: NA
Location:  46.64°N, 93.13°W
Report Text: KHZX 240227Z AUTO 32003KT 4SM BKN019 OVC045 02/01 A2936 RMK AO2
Loading
Personal Weather Stations






























Interactive Weather Map New forecast layout! Learn more

10-Day Weather Forecast

Advertisements
Track Severe Weather on mobile